sensor_id;sensor_type;location;lat;lon;timestamp;P1;durP1;ratioP1;P2;durP2;ratioP2
52934;SDS011;38802;50.198;19.796;2023-05-10T00:01:13;6.90;;;4.40;;
52934;SDS011;38802;50.198;19.796;2023-05-10T00:03:41;5.40;;;4.90;;
52934;SDS011;38802;50.198;19.796;2023-05-10T00:06:09;5.30;;;4.50;;
52934;SDS011;38802;50.198;19.796;2023-05-10T00:08:37;6.00;;;4.60;;
52934;SDS011;38802;50.198;19.796;2023-05-10T00:11:05;6.30;;;4.70;;
52934;SDS011;38802;50.198;19.796;2023-05-10T00:13:33;9.20;;;4.80;;
52934;SDS011;38802;50.198;19.796;2023-05-10T00:16:01;8.40;;;4.90;;
52934;SDS011;38802;50.198;19.796;2023-05-10T00:18:29;8.30;;;5.20;;
52934;SDS011;38802;50.198;19.796;2023-05-10T00:20:57;7.40;;;4.40;;
52934;SDS011;38802;50.198;19.796;2023-05-10T00:23:25;13.50;;;5.20;;
52934;SDS011;38802;50.198;19.796;2023-05-10T00:25:53;6.00;;;5.20;;
52934;SDS011;38802;50.198;19.796;2023-05-10T00:28:21;6.20;;;4.80;;
52934;SDS011;38802;50.198;19.796;2023-05-10T00:30:48;6.80;;;5.10;;
52934;SDS011;38802;50.198;19.796;2023-05-10T00:33:16;5.50;;;4.60;;
52934;SDS011;38802;50.198;19.796;2023-05-10T00:35:44;8.50;;;4.70;;
52934;SDS011;38802;50.198;19.796;2023-05-10T00:38:12;9.70;;;5.20;;
52934;SDS011;38802;50.198;19.796;2023-05-10T00:40:41;6.50;;;4.10;;
52934;SDS011;38802;50.198;19.796;2023-05-10T00:43:14;7.40;;;4.60;;
52934;SDS011;38802;50.198;19.796;2023-05-10T00:45:42;7.70;;;4.40;;
52934;SDS011;38802;50.198;19.796;2023-05-10T00:48:11;4.90;;;4.30;;
52934;SDS011;38802;50.198;19.796;2023-05-10T00:50:40;8.00;;;4.60;;
52934;SDS011;38802;50.198;19.796;2023-05-10T00:53:08;6.30;;;4.20;;
52934;SDS011;38802;50.198;19.796;2023-05-10T00:55:37;6.30;;;4.60;;
52934;SDS011;38802;50.198;19.796;2023-05-10T00:58:05;5.50;;;4.30;;
52934;SDS011;38802;50.198;19.796;2023-05-10T01:00:33;6.90;;;4.60;;
52934;SDS011;38802;50.198;19.796;2023-05-10T01:03:02;5.10;;;4.00;;
52934;SDS011;38802;50.198;19.796;2023-05-10T01:05:30;4.50;;;4.00;;
52934;SDS011;38802;50.198;19.796;2023-05-10T01:07:59;6.60;;;4.50;;
52934;SDS011;38802;50.198;19.796;2023-05-10T01:10:27;6.40;;;4.60;;
52934;SDS011;38802;50.198;19.796;2023-05-10T01:12:56;6.40;;;4.30;;
52934;SDS011;38802;50.198;19.796;2023-05-10T01:15:26;6.70;;;4.40;;
52934;SDS011;38802;50.198;19.796;2023-05-10T01:17:55;5.50;;;4.40;;
52934;SDS011;38802;50.198;19.796;2023-05-10T01:20:25;5.00;;;4.50;;
52934;SDS011;38802;50.198;19.796;2023-05-10T01:37:36;4.90;;;4.30;;
52934;SDS011;38802;50.198;19.796;2023-05-10T01:40:25;8.00;;;5.10;;
52934;SDS011;38802;50.198;19.796;2023-05-10T01:43:02;7.60;;;4.30;;
52934;SDS011;38802;50.198;19.796;2023-05-10T01:45:41;5.20;;;4.70;;
52934;SDS011;38802;50.198;19.796;2023-05-10T01:48:18;6.60;;;5.30;;
52934;SDS011;38802;50.198;19.796;2023-05-10T01:50:48;4.70;;;4.00;;
52934;SDS011;38802;50.198;19.796;2023-05-10T01:53:18;6.20;;;5.00;;
52934;SDS011;38802;50.198;19.796;2023-05-10T01:55:50;5.50;;;4.50;;
52934;SDS011;38802;50.198;19.796;2023-05-10T01:58:28;6.90;;;4.40;;
52934;SDS011;38802;50.198;19.796;2023-05-10T02:00:59;6.40;;;4.20;;
52934;SDS011;38802;50.198;19.796;2023-05-10T02:03:31;7.70;;;4.40;;
52934;SDS011;38802;50.198;19.796;2023-05-10T02:06:03;6.00;;;4.00;;
52934;SDS011;38802;50.198;19.796;2023-05-10T02:08:33;7.50;;;5.00;;
52934;SDS011;38802;50.198;19.796;2023-05-10T02:11:04;9.00;;;4.20;;
52934;SDS011;38802;50.198;19.796;2023-05-10T02:13:33;4.40;;;4.00;;
52934;SDS011;38802;50.198;19.796;2023-05-10T02:16:04;6.10;;;4.20;;
52934;SDS011;38802;50.198;19.796;2023-05-10T02:18:33;5.00;;;4.50;;
52934;SDS011;38802;50.198;19.796;2023-05-10T02:21:04;7.60;;;5.40;;
52934;SDS011;38802;50.198;19.796;2023-05-10T02:23:32;7.30;;;4.10;;
52934;SDS011;38802;50.198;19.796;2023-05-10T02:26:02;6.20;;;4.50;;
52934;SDS011;38802;50.198;19.796;2023-05-10T02:28:33;5.00;;;4.30;;
52934;SDS011;38802;50.198;19.796;2023-05-10T02:31:04;6.50;;;5.10;;
52934;SDS011;38802;50.198;19.796;2023-05-10T02:33:33;6.10;;;4.00;;
52934;SDS011;38802;50.198;19.796;2023-05-10T02:36:02;4.90;;;4.50;;
52934;SDS011;38802;50.198;19.796;2023-05-10T02:38:31;7.50;;;4.20;;
52934;SDS011;38802;50.198;19.796;2023-05-10T02:41:02;6.30;;;4.60;;
52934;SDS011;38802;50.198;19.796;2023-05-10T02:43:33;5.40;;;4.00;;
52934;SDS011;38802;50.198;19.796;2023-05-10T02:46:01;10.30;;;4.30;;
52934;SDS011;38802;50.198;19.796;2023-05-10T02:48:29;7.00;;;4.80;;
52934;SDS011;38802;50.198;19.796;2023-05-10T02:51:00;6.00;;;4.70;;
52934;SDS011;38802;50.198;19.796;2023-05-10T02:53:33;5.40;;;4.70;;
52934;SDS011;38802;50.198;19.796;2023-05-10T02:56:04;5.20;;;4.50;;
52934;SDS011;38802;50.198;19.796;2023-05-10T02:58:35;5.90;;;3.90;;
52934;SDS011;38802;50.198;19.796;2023-05-10T03:01:03;5.00;;;4.60;;
52934;SDS011;38802;50.198;19.796;2023-05-10T03:03:31;5.40;;;4.40;;
52934;SDS011;38802;50.198;19.796;2023-05-10T03:05:59;6.90;;;4.20;;
52934;SDS011;38802;50.198;19.796;2023-05-10T03:08:28;8.90;;;4.40;;
52934;SDS011;38802;50.198;19.796;2023-05-10T03:14:21;6.30;;;4.50;;
52934;SDS011;38802;50.198;19.796;2023-05-10T03:19:54;5.60;;;5.10;;
52934;SDS011;38802;50.198;19.796;2023-05-10T03:22:25;5.10;;;4.30;;
52934;SDS011;38802;50.198;19.796;2023-05-10T03:24:58;7.30;;;4.90;;
52934;SDS011;38802;50.198;19.796;2023-05-10T03:27:30;4.90;;;4.30;;
52934;SDS011;38802;50.198;19.796;2023-05-10T03:30:00;7.00;;;4.80;;
52934;SDS011;38802;50.198;19.796;2023-05-10T03:32:36;4.70;;;4.20;;
52934;SDS011;38802;50.198;19.796;2023-05-10T03:35:08;5.40;;;4.30;;
52934;SDS011;38802;50.198;19.796;2023-05-10T03:37:37;4.40;;;4.10;;
52934;SDS011;38802;50.198;19.796;2023-05-10T03:40:06;5.60;;;4.80;;
52934;SDS011;38802;50.198;19.796;2023-05-10T03:42:35;6.90;;;4.30;;
52934;SDS011;38802;50.198;19.796;2023-05-10T03:45:03;4.80;;;4.30;;
52934;SDS011;38802;50.198;19.796;2023-05-10T03:47:32;5.50;;;4.40;;
52934;SDS011;38802;50.198;19.796;2023-05-10T03:50:00;7.90;;;4.50;;
52934;SDS011;38802;50.198;19.796;2023-05-10T03:52:29;5.60;;;4.20;;
52934;SDS011;38802;50.198;19.796;2023-05-10T03:54:57;5.60;;;4.80;;
52934;SDS011;38802;50.198;19.796;2023-05-10T03:57:25;5.90;;;5.10;;
52934;SDS011;38802;50.198;19.796;2023-05-10T03:59:53;5.50;;;4.70;;
52934;SDS011;38802;50.198;19.796;2023-05-10T04:02:21;5.50;;;4.20;;
52934;SDS011;38802;50.198;19.796;2023-05-10T04:04:49;7.00;;;4.70;;
52934;SDS011;38802;50.198;19.796;2023-05-10T04:07:18;8.00;;;5.10;;
52934;SDS011;38802;50.198;19.796;2023-05-10T04:09:47;6.90;;;4.90;;
52934;SDS011;38802;50.198;19.796;2023-05-10T04:12:15;7.60;;;4.60;;
52934;SDS011;38802;50.198;19.796;2023-05-10T04:14:43;6.50;;;5.00;;
52934;SDS011;38802;50.198;19.796;2023-05-10T04:17:11;6.30;;;5.70;;
52934;SDS011;38802;50.198;19.796;2023-05-10T04:19:39;5.30;;;4.50;;
52934;SDS011;38802;50.198;19.796;2023-05-10T04:22:07;6.90;;;5.00;;
52934;SDS011;38802;50.198;19.796;2023-05-10T04:24:35;6.20;;;5.00;;
52934;SDS011;38802;50.198;19.796;2023-05-10T04:27:03;5.90;;;4.60;;
52934;SDS011;38802;50.198;19.796;2023-05-10T04:29:31;6.30;;;4.30;;
52934;SDS011;38802;50.198;19.796;2023-05-10T04:31:59;5.00;;;4.60;;
52934;SDS011;38802;50.198;19.796;2023-05-10T04:34:27;5.30;;;4.70;;
52934;SDS011;38802;50.198;19.796;2023-05-10T04:36:55;5.60;;;4.80;;
52934;SDS011;38802;50.198;19.796;2023-05-10T04:39:22;5.90;;;5.00;;
52934;SDS011;38802;50.198;19.796;2023-05-10T04:41:50;6.80;;;4.60;;
52934;SDS011;38802;50.198;19.796;2023-05-10T04:44:18;7.10;;;4.80;;
52934;SDS011;38802;50.198;19.796;2023-05-10T04:46:46;5.20;;;4.70;;
52934;SDS011;38802;50.198;19.796;2023-05-10T04:49:14;5.90;;;4.50;;
52934;SDS011;38802;50.198;19.796;2023-05-10T04:51:42;8.70;;;4.50;;
52934;SDS011;38802;50.198;19.796;2023-05-10T04:54:10;6.90;;;4.70;;
52934;SDS011;38802;50.198;19.796;2023-05-10T04:56:38;6.00;;;4.80;;
52934;SDS011;38802;50.198;19.796;2023-05-10T04:59:06;7.90;;;4.20;;
52934;SDS011;38802;50.198;19.796;2023-05-10T05:01:34;7.40;;;4.50;;
52934;SDS011;38802;50.198;19.796;2023-05-10T05:04:02;9.00;;;4.90;;
52934;SDS011;38802;50.198;19.796;2023-05-10T05:06:30;5.30;;;4.90;;
52934;SDS011;38802;50.198;19.796;2023-05-10T05:08:58;5.10;;;4.60;;
52934;SDS011;38802;50.198;19.796;2023-05-10T05:11:27;5.10;;;4.70;;
52934;SDS011;38802;50.198;19.796;2023-05-10T05:13:55;5.30;;;4.60;;
52934;SDS011;38802;50.198;19.796;2023-05-10T05:16:23;4.70;;;4.30;;
52934;SDS011;38802;50.198;19.796;2023-05-10T05:18:50;7.00;;;3.90;;
52934;SDS011;38802;50.198;19.796;2023-05-10T05:21:19;6.10;;;4.60;;
52934;SDS011;38802;50.198;19.796;2023-05-10T05:23:47;5.00;;;3.80;;
52934;SDS011;38802;50.198;19.796;2023-05-10T05:26:15;5.50;;;4.10;;
52934;SDS011;38802;50.198;19.796;2023-05-10T05:28:43;5.30;;;4.10;;
52934;SDS011;38802;50.198;19.796;2023-05-10T05:31:11;4.10;;;3.60;;
52934;SDS011;38802;50.198;19.796;2023-05-10T05:33:40;12.20;;;4.20;;
52934;SDS011;38802;50.198;19.796;2023-05-10T05:36:07;4.80;;;4.30;;
52934;SDS011;38802;50.198;19.796;2023-05-10T05:38:36;7.90;;;4.90;;
52934;SDS011;38802;50.198;19.796;2023-05-10T05:41:03;9.50;;;4.40;;
52934;SDS011;38802;50.198;19.796;2023-05-10T05:43:31;5.40;;;3.30;;
52934;SDS011;38802;50.198;19.796;2023-05-10T05:46:01;5.30;;;4.00;;
52934;SDS011;38802;50.198;19.796;2023-05-10T05:48:29;3.70;;;3.10;;
52934;SDS011;38802;50.198;19.796;2023-05-10T05:50:58;4.40;;;3.60;;
52934;SDS011;38802;50.198;19.796;2023-05-10T05:53:25;13.00;;;4.40;;
52934;SDS011;38802;50.198;19.796;2023-05-10T05:55:54;6.50;;;4.30;;
52934;SDS011;38802;50.198;19.796;2023-05-10T05:58:24;5.70;;;4.30;;
52934;SDS011;38802;50.198;19.796;2023-05-10T06:00:53;5.20;;;4.20;;
52934;SDS011;38802;50.198;19.796;2023-05-10T06:03:21;7.20;;;3.70;;
52934;SDS011;38802;50.198;19.796;2023-05-10T06:05:49;4.40;;;3.90;;
52934;SDS011;38802;50.198;19.796;2023-05-10T06:08:17;4.30;;;3.90;;
52934;SDS011;38802;50.198;19.796;2023-05-10T06:10:45;7.50;;;3.60;;
52934;SDS011;38802;50.198;19.796;2023-05-10T06:13:13;5.10;;;3.90;;
52934;SDS011;38802;50.198;19.796;2023-05-10T06:15:41;6.20;;;4.90;;
52934;SDS011;38802;50.198;19.796;2023-05-10T06:18:09;9.20;;;3.70;;
52934;SDS011;38802;50.198;19.796;2023-05-10T06:20:37;6.70;;;3.80;;
52934;SDS011;38802;50.198;19.796;2023-05-10T06:23:06;5.90;;;4.00;;
52934;SDS011;38802;50.198;19.796;2023-05-10T06:25:34;6.50;;;3.70;;
52934;SDS011;38802;50.198;19.796;2023-05-10T06:28:02;7.40;;;4.60;;
52934;SDS011;38802;50.198;19.796;2023-05-10T06:30:30;5.10;;;4.30;;
52934;SDS011;38802;50.198;19.796;2023-05-10T06:32:58;3.90;;;3.50;;
52934;SDS011;38802;50.198;19.796;2023-05-10T06:35:26;4.60;;;4.00;;
52934;SDS011;38802;50.198;19.796;2023-05-10T06:37:54;6.10;;;4.10;;
52934;SDS011;38802;50.198;19.796;2023-05-10T06:40:23;5.20;;;3.90;;
52934;SDS011;38802;50.198;19.796;2023-05-10T06:42:51;5.20;;;4.00;;
52934;SDS011;38802;50.198;19.796;2023-05-10T06:45:19;5.20;;;4.40;;
52934;SDS011;38802;50.198;19.796;2023-05-10T06:47:47;5.90;;;4.20;;
52934;SDS011;38802;50.198;19.796;2023-05-10T06:50:15;4.50;;;4.00;;
52934;SDS011;38802;50.198;19.796;2023-05-10T06:52:44;5.90;;;4.50;;
52934;SDS011;38802;50.198;19.796;2023-05-10T06:55:13;5.40;;;4.60;;
52934;SDS011;38802;50.198;19.796;2023-05-10T06:57:41;4.80;;;4.20;;
52934;SDS011;38802;50.198;19.796;2023-05-10T07:00:09;5.10;;;3.80;;
52934;SDS011;38802;50.198;19.796;2023-05-10T07:02:37;5.40;;;3.90;;
52934;SDS011;38802;50.198;19.796;2023-05-10T07:05:06;6.60;;;4.20;;
52934;SDS011;38802;50.198;19.796;2023-05-10T07:07:34;5.60;;;4.80;;
52934;SDS011;38802;50.198;19.796;2023-05-10T07:10:02;4.90;;;3.90;;
52934;SDS011;38802;50.198;19.796;2023-05-10T07:12:31;7.70;;;4.80;;
52934;SDS011;38802;50.198;19.796;2023-05-10T07:14:59;5.50;;;4.20;;
52934;SDS011;38802;50.198;19.796;2023-05-10T07:17:27;5.80;;;4.70;;
52934;SDS011;38802;50.198;19.796;2023-05-10T07:19:56;5.40;;;4.80;;
52934;SDS011;38802;50.198;19.796;2023-05-10T07:22:24;6.10;;;4.20;;
52934;SDS011;38802;50.198;19.796;2023-05-10T07:24:52;7.00;;;4.20;;
52934;SDS011;38802;50.198;19.796;2023-05-10T07:27:21;4.30;;;3.90;;
52934;SDS011;38802;50.198;19.796;2023-05-10T07:29:49;5.70;;;3.70;;
52934;SDS011;38802;50.198;19.796;2023-05-10T07:32:17;4.50;;;3.20;;
52934;SDS011;38802;50.198;19.796;2023-05-10T07:34:45;4.80;;;3.90;;
52934;SDS011;38802;50.198;19.796;2023-05-10T07:37:13;4.80;;;3.50;;
52934;SDS011;38802;50.198;19.796;2023-05-10T07:39:41;5.80;;;3.80;;
52934;SDS011;38802;50.198;19.796;2023-05-10T07:42:09;5.90;;;3.90;;
52934;SDS011;38802;50.198;19.796;2023-05-10T07:44:37;4.60;;;3.50;;
52934;SDS011;38802;50.198;19.796;2023-05-10T07:47:05;6.50;;;4.20;;
52934;SDS011;38802;50.198;19.796;2023-05-10T07:49:33;4.70;;;3.70;;
52934;SDS011;38802;50.198;19.796;2023-05-10T07:52:02;5.40;;;3.80;;
52934;SDS011;38802;50.198;19.796;2023-05-10T07:54:30;4.70;;;3.70;;
52934;SDS011;38802;50.198;19.796;2023-05-10T07:56:59;4.20;;;3.70;;
52934;SDS011;38802;50.198;19.796;2023-05-10T07:59:28;3.50;;;2.70;;
52934;SDS011;38802;50.198;19.796;2023-05-10T08:01:56;6.80;;;3.90;;
52934;SDS011;38802;50.198;19.796;2023-05-10T08:04:24;5.10;;;4.30;;
52934;SDS011;38802;50.198;19.796;2023-05-10T08:06:52;7.30;;;3.60;;
52934;SDS011;38802;50.198;19.796;2023-05-10T08:09:20;6.10;;;3.40;;
52934;SDS011;38802;50.198;19.796;2023-05-10T08:11:51;5.40;;;3.40;;
52934;SDS011;38802;50.198;19.796;2023-05-10T08:14:20;5.40;;;3.00;;
52934;SDS011;38802;50.198;19.796;2023-05-10T08:16:48;3.20;;;3.00;;
52934;SDS011;38802;50.198;19.796;2023-05-10T08:19:16;7.10;;;3.60;;
52934;SDS011;38802;50.198;19.796;2023-05-10T08:21:47;4.50;;;3.60;;
52934;SDS011;38802;50.198;19.796;2023-05-10T08:24:15;7.10;;;3.00;;
52934;SDS011;38802;50.198;19.796;2023-05-10T08:26:43;4.10;;;3.30;;
52934;SDS011;38802;50.198;19.796;2023-05-10T08:29:11;9.70;;;3.70;;
52934;SDS011;38802;50.198;19.796;2023-05-10T08:31:43;4.40;;;3.50;;
52934;SDS011;38802;50.198;19.796;2023-05-10T08:34:15;6.10;;;3.70;;
52934;SDS011;38802;50.198;19.796;2023-05-10T08:36:43;2.90;;;2.50;;
52934;SDS011;38802;50.198;19.796;2023-05-10T08:39:11;4.00;;;2.90;;
52934;SDS011;38802;50.198;19.796;2023-05-10T08:41:57;3.90;;;2.40;;
52934;SDS011;38802;50.198;19.796;2023-05-10T08:44:30;2.90;;;2.50;;
52934;SDS011;38802;50.198;19.796;2023-05-10T08:47:02;5.80;;;3.60;;
52934;SDS011;38802;50.198;19.796;2023-05-10T08:49:33;3.80;;;3.40;;
52934;SDS011;38802;50.198;19.796;2023-05-10T08:52:02;4.00;;;3.10;;
52934;SDS011;38802;50.198;19.796;2023-05-10T08:54:36;6.50;;;3.10;;
52934;SDS011;38802;50.198;19.796;2023-05-10T08:57:04;3.20;;;2.60;;
52934;SDS011;38802;50.198;19.796;2023-05-10T08:59:32;3.80;;;3.20;;
52934;SDS011;38802;50.198;19.796;2023-05-10T09:02:00;3.70;;;2.50;;
52934;SDS011;38802;50.198;19.796;2023-05-10T09:04:29;7.00;;;2.60;;
52934;SDS011;38802;50.198;19.796;2023-05-10T09:06:58;4.00;;;2.80;;
52934;SDS011;38802;50.198;19.796;2023-05-10T09:09:27;3.80;;;2.60;;
52934;SDS011;38802;50.198;19.796;2023-05-10T09:11:55;3.60;;;2.50;;
52934;SDS011;38802;50.198;19.796;2023-05-10T09:14:24;4.50;;;2.70;;
52934;SDS011;38802;50.198;19.796;2023-05-10T09:16:53;3.20;;;2.60;;
52934;SDS011;38802;50.198;19.796;2023-05-10T09:19:22;2.60;;;2.00;;
52934;SDS011;38802;50.198;19.796;2023-05-10T09:21:50;2.20;;;2.00;;
52934;SDS011;38802;50.198;19.796;2023-05-10T09:24:18;3.20;;;2.50;;
52934;SDS011;38802;50.198;19.796;2023-05-10T09:26:47;2.40;;;2.10;;
52934;SDS011;38802;50.198;19.796;2023-05-10T09:29:16;4.70;;;2.40;;
52934;SDS011;38802;50.198;19.796;2023-05-10T09:31:48;4.60;;;1.90;;
52934;SDS011;38802;50.198;19.796;2023-05-10T09:34:32;3.00;;;2.40;;
52934;SDS011;38802;50.198;19.796;2023-05-10T09:37:03;3.60;;;2.50;;
52934;SDS011;38802;50.198;19.796;2023-05-10T09:42:01;2.90;;;2.40;;
52934;SDS011;38802;50.198;19.796;2023-05-10T09:44:32;3.50;;;1.70;;
52934;SDS011;38802;50.198;19.796;2023-05-10T09:47:01;5.20;;;1.70;;
52934;SDS011;38802;50.198;19.796;2023-05-10T09:49:30;3.20;;;2.30;;
52934;SDS011;38802;50.198;19.796;2023-05-10T09:54:34;2.90;;;1.50;;
52934;SDS011;38802;50.198;19.796;2023-05-10T09:57:04;3.90;;;1.90;;
52934;SDS011;38802;50.198;19.796;2023-05-10T09:59:32;3.30;;;1.70;;
52934;SDS011;38802;50.198;19.796;2023-05-10T10:02:02;3.60;;;2.00;;
52934;SDS011;38802;50.198;19.796;2023-05-10T10:04:31;3.30;;;1.80;;
52934;SDS011;38802;50.198;19.796;2023-05-10T10:07:03;1.80;;;1.70;;
52934;SDS011;38802;50.198;19.796;2023-05-10T10:09:32;2.90;;;1.90;;
52934;SDS011;38802;50.198;19.796;2023-05-10T10:12:01;2.60;;;1.90;;
52934;SDS011;38802;50.198;19.796;2023-05-10T10:14:31;3.40;;;2.20;;
52934;SDS011;38802;50.198;19.796;2023-05-10T10:17:00;4.70;;;2.30;;
52934;SDS011;38802;50.198;19.796;2023-05-10T10:19:33;2.50;;;1.60;;
52934;SDS011;38802;50.198;19.796;2023-05-10T10:22:03;5.50;;;1.60;;
52934;SDS011;38802;50.198;19.796;2023-05-10T10:24:32;4.70;;;2.10;;
52934;SDS011;38802;50.198;19.796;2023-05-10T10:27:03;2.20;;;1.80;;
52934;SDS011;38802;50.198;19.796;2023-05-10T10:32:28;2.30;;;1.60;;
52934;SDS011;38802;50.198;19.796;2023-05-10T10:35:05;1.90;;;1.70;;
52934;SDS011;38802;50.198;19.796;2023-05-10T10:37:46;4.10;;;1.70;;
52934;SDS011;38802;50.198;19.796;2023-05-10T10:40:26;2.90;;;1.80;;
52934;SDS011;38802;50.198;19.796;2023-05-10T10:46:09;4.00;;;1.50;;
52934;SDS011;38802;50.198;19.796;2023-05-10T10:49:08;5.00;;;2.00;;
52934;SDS011;38802;50.198;19.796;2023-05-10T10:51:39;3.00;;;1.40;;
52934;SDS011;38802;50.198;19.796;2023-05-10T10:54:11;1.50;;;1.20;;
52934;SDS011;38802;50.198;19.796;2023-05-10T10:56:40;3.70;;;1.70;;
52934;SDS011;38802;50.198;19.796;2023-05-10T10:59:08;3.90;;;1.60;;
52934;SDS011;38802;50.198;19.796;2023-05-10T11:01:36;1.90;;;1.40;;
52934;SDS011;38802;50.198;19.796;2023-05-10T11:06:33;3.70;;;1.50;;
52934;SDS011;38802;50.198;19.796;2023-05-10T11:09:09;6.40;;;1.80;;
52934;SDS011;38802;50.198;19.796;2023-05-10T11:11:56;1.40;;;1.30;;
52934;SDS011;38802;50.198;19.796;2023-05-10T11:14:25;2.10;;;1.70;;
52934;SDS011;38802;50.198;19.796;2023-05-10T11:16:53;3.50;;;1.60;;
52934;SDS011;38802;50.198;19.796;2023-05-10T11:19:22;5.60;;;2.60;;
52934;SDS011;38802;50.198;19.796;2023-05-10T11:24:32;5.90;;;1.80;;
52934;SDS011;38802;50.198;19.796;2023-05-10T11:27:01;8.40;;;2.00;;
52934;SDS011;38802;50.198;19.796;2023-05-10T11:29:29;6.70;;;1.80;;
52934;SDS011;38802;50.198;19.796;2023-05-10T11:31:58;3.90;;;1.80;;
52934;SDS011;38802;50.198;19.796;2023-05-10T11:34:27;1.80;;;1.70;;
52934;SDS011;38802;50.198;19.796;2023-05-10T11:36:56;3.60;;;1.60;;
52934;SDS011;38802;50.198;19.796;2023-05-10T11:39:28;3.10;;;1.30;;
52934;SDS011;38802;50.198;19.796;2023-05-10T11:41:58;2.00;;;1.70;;
52934;SDS011;38802;50.198;19.796;2023-05-10T11:44:30;1.80;;;1.60;;
52934;SDS011;38802;50.198;19.796;2023-05-10T11:46:59;2.50;;;1.60;;
52934;SDS011;38802;50.198;19.796;2023-05-10T11:49:28;4.60;;;1.70;;
52934;SDS011;38802;50.198;19.796;2023-05-10T11:52:03;1.70;;;1.50;;
52934;SDS011;38802;50.198;19.796;2023-05-10T11:57:02;2.50;;;1.50;;
52934;SDS011;38802;50.198;19.796;2023-05-10T11:59:31;1.90;;;1.60;;
52934;SDS011;38802;50.198;19.796;2023-05-10T12:01:59;2.40;;;2.00;;
52934;SDS011;38802;50.198;19.796;2023-05-10T12:04:27;1.60;;;1.40;;
52934;SDS011;38802;50.198;19.796;2023-05-10T12:06:57;1.90;;;1.60;;
52934;SDS011;38802;50.198;19.796;2023-05-10T12:09:25;6.00;;;1.50;;
52934;SDS011;38802;50.198;19.796;2023-05-10T12:12:09;2.90;;;1.60;;
52934;SDS011;38802;50.198;19.796;2023-05-10T12:14:38;1.60;;;1.20;;
52934;SDS011;38802;50.198;19.796;2023-05-10T12:17:10;2.20;;;1.70;;
52934;SDS011;38802;50.198;19.796;2023-05-10T12:19:41;1.70;;;1.60;;
52934;SDS011;38802;50.198;19.796;2023-05-10T12:22:09;2.80;;;1.30;;
52934;SDS011;38802;50.198;19.796;2023-05-10T12:24:37;3.90;;;1.70;;
52934;SDS011;38802;50.198;19.796;2023-05-10T12:27:08;2.00;;;1.50;;
52934;SDS011;38802;50.198;19.796;2023-05-10T12:29:36;2.10;;;1.40;;
52934;SDS011;38802;50.198;19.796;2023-05-10T12:32:11;4.90;;;1.70;;
52934;SDS011;38802;50.198;19.796;2023-05-10T12:34:40;2.60;;;1.50;;
52934;SDS011;38802;50.198;19.796;2023-05-10T12:37:08;5.40;;;1.30;;
52934;SDS011;38802;50.198;19.796;2023-05-10T12:39:41;1.40;;;1.20;;
52934;SDS011;38802;50.198;19.796;2023-05-10T12:42:16;5.40;;;2.20;;
52934;SDS011;38802;50.198;19.796;2023-05-10T12:44:49;4.30;;;1.80;;
52934;SDS011;38802;50.198;19.796;2023-05-10T12:47:17;2.60;;;1.60;;
52934;SDS011;38802;50.198;19.796;2023-05-10T12:49:46;1.80;;;1.70;;
52934;SDS011;38802;50.198;19.796;2023-05-10T12:52:18;1.80;;;1.60;;
52934;SDS011;38802;50.198;19.796;2023-05-10T12:54:46;4.10;;;1.60;;
52934;SDS011;38802;50.198;19.796;2023-05-10T12:57:14;1.50;;;1.40;;
52934;SDS011;38802;50.198;19.796;2023-05-10T12:59:42;4.30;;;1.70;;
52934;SDS011;38802;50.198;19.796;2023-05-10T13:02:10;3.40;;;1.50;;
52934;SDS011;38802;50.198;19.796;2023-05-10T13:04:38;2.30;;;1.50;;
52934;SDS011;38802;50.198;19.796;2023-05-10T13:07:08;11.60;;;2.10;;
52934;SDS011;38802;50.198;19.796;2023-05-10T13:09:36;3.50;;;1.70;;
52934;SDS011;38802;50.198;19.796;2023-05-10T13:12:04;5.00;;;2.10;;
52934;SDS011;38802;50.198;19.796;2023-05-10T13:14:35;2.20;;;1.80;;
52934;SDS011;38802;50.198;19.796;2023-05-10T13:17:03;6.60;;;2.00;;
52934;SDS011;38802;50.198;19.796;2023-05-10T13:19:32;1.50;;;1.30;;
52934;SDS011;38802;50.198;19.796;2023-05-10T13:22:00;2.50;;;1.50;;
52934;SDS011;38802;50.198;19.796;2023-05-10T13:24:28;5.60;;;1.60;;
52934;SDS011;38802;50.198;19.796;2023-05-10T13:26:56;3.00;;;1.70;;
52934;SDS011;38802;50.198;19.796;2023-05-10T13:29:27;2.30;;;1.70;;
52934;SDS011;38802;50.198;19.796;2023-05-10T13:31:55;3.40;;;1.50;;
52934;SDS011;38802;50.198;19.796;2023-05-10T13:34:24;5.70;;;1.50;;
52934;SDS011;38802;50.198;19.796;2023-05-10T13:36:52;2.70;;;1.50;;
52934;SDS011;38802;50.198;19.796;2023-05-10T13:39:21;2.90;;;1.60;;
52934;SDS011;38802;50.198;19.796;2023-05-10T13:41:50;3.00;;;1.70;;
52934;SDS011;38802;50.198;19.796;2023-05-10T13:44:20;3.70;;;1.70;;
52934;SDS011;38802;50.198;19.796;2023-05-10T13:46:48;2.00;;;1.30;;
52934;SDS011;38802;50.198;19.796;2023-05-10T13:49:16;2.50;;;1.50;;
52934;SDS011;38802;50.198;19.796;2023-05-10T13:51:44;4.10;;;1.70;;
52934;SDS011;38802;50.198;19.796;2023-05-10T13:54:12;6.10;;;1.90;;
52934;SDS011;38802;50.198;19.796;2023-05-10T13:56:41;3.10;;;1.40;;
52934;SDS011;38802;50.198;19.796;2023-05-10T13:59:10;2.00;;;1.50;;
52934;SDS011;38802;50.198;19.796;2023-05-10T14:01:38;2.10;;;1.30;;
52934;SDS011;38802;50.198;19.796;2023-05-10T14:04:06;2.70;;;1.60;;
52934;SDS011;38802;50.198;19.796;2023-05-10T14:06:38;7.00;;;2.10;;
52934;SDS011;38802;50.198;19.796;2023-05-10T14:09:07;1.40;;;1.30;;
52934;SDS011;38802;50.198;19.796;2023-05-10T14:11:35;2.90;;;1.60;;
52934;SDS011;38802;50.198;19.796;2023-05-10T14:14:03;2.00;;;1.80;;
52934;SDS011;38802;50.198;19.796;2023-05-10T14:16:31;2.20;;;1.40;;
52934;SDS011;38802;50.198;19.796;2023-05-10T14:18:59;2.40;;;1.10;;
52934;SDS011;38802;50.198;19.796;2023-05-10T14:21:27;1.70;;;1.20;;
52934;SDS011;38802;50.198;19.796;2023-05-10T14:24:02;5.50;;;1.50;;
52934;SDS011;38802;50.198;19.796;2023-05-10T14:26:30;1.50;;;1.40;;
52934;SDS011;38802;50.198;19.796;2023-05-10T14:28:59;2.00;;;1.50;;
52934;SDS011;38802;50.198;19.796;2023-05-10T14:31:27;2.40;;;1.70;;
52934;SDS011;38802;50.198;19.796;2023-05-10T14:33:55;1.60;;;1.40;;
52934;SDS011;38802;50.198;19.796;2023-05-10T14:36:23;2.50;;;1.50;;
52934;SDS011;38802;50.198;19.796;2023-05-10T14:38:51;5.80;;;1.30;;
52934;SDS011;38802;50.198;19.796;2023-05-10T14:41:19;2.40;;;2.00;;
52934;SDS011;38802;50.198;19.796;2023-05-10T14:43:47;4.70;;;1.70;;
52934;SDS011;38802;50.198;19.796;2023-05-10T14:46:15;3.30;;;1.70;;
52934;SDS011;38802;50.198;19.796;2023-05-10T14:48:43;4.70;;;1.50;;
52934;SDS011;38802;50.198;19.796;2023-05-10T14:51:12;2.80;;;1.80;;
52934;SDS011;38802;50.198;19.796;2023-05-10T14:53:40;1.70;;;1.60;;
52934;SDS011;38802;50.198;19.796;2023-05-10T14:56:08;1.40;;;1.30;;
52934;SDS011;38802;50.198;19.796;2023-05-10T14:58:36;1.70;;;1.50;;
52934;SDS011;38802;50.198;19.796;2023-05-10T15:01:04;2.60;;;1.30;;
52934;SDS011;38802;50.198;19.796;2023-05-10T15:03:33;2.50;;;1.50;;
52934;SDS011;38802;50.198;19.796;2023-05-10T15:06:03;2.80;;;1.50;;
52934;SDS011;38802;50.198;19.796;2023-05-10T15:08:31;5.20;;;1.60;;
52934;SDS011;38802;50.198;19.796;2023-05-10T15:11:00;3.60;;;2.50;;
52934;SDS011;38802;50.198;19.796;2023-05-10T15:13:28;5.40;;;2.10;;
52934;SDS011;38802;50.198;19.796;2023-05-10T15:15:56;1.80;;;1.70;;
52934;SDS011;38802;50.198;19.796;2023-05-10T15:18:24;4.60;;;4.10;;
52934;SDS011;38802;50.198;19.796;2023-05-10T15:20:53;4.00;;;1.70;;
52934;SDS011;38802;50.198;19.796;2023-05-10T15:23:22;3.60;;;1.70;;
52934;SDS011;38802;50.198;19.796;2023-05-10T15:25:50;3.90;;;1.80;;